sensor_id;sensor_type;location;lat;lon;timestamp;pressure;altitude;pressure_sealevel;temperature;humidity
77770;BME280;66961;51.482;9.160;2024-02-21T00:01:18;99946.13;;;5.86;100.00
77770;BME280;66961;51.482;9.160;2024-02-21T00:03:44;99938.38;;;5.85;100.00
77770;BME280;66961;51.482;9.160;2024-02-21T00:06:09;99939.91;;;5.87;100.00
77770;BME280;66961;51.482;9.160;2024-02-21T00:08:34;99946.75;;;5.90;100.00
77770;BME280;66961;51.482;9.160;2024-02-21T00:10:59;99938.72;;;5.91;100.00
77770;BME280;66961;51.482;9.160;2024-02-21T00:13:25;99940.84;;;5.97;100.00
77770;BME280;66961;51.482;9.160;2024-02-21T00:15:50;99927.25;;;5.92;100.00
77770;BME280;66961;51.482;9.160;2024-02-21T00:18:15;99919.47;;;5.91;100.00
77770;BME280;66961;51.482;9.160;2024-02-21T00:20:40;99923.53;;;5.95;100.00
77770;BME280;66961;51.482;9.160;2024-02-21T00:23:06;99920.38;;;6.01;100.00
77770;BME280;66961;51.482;9.160;2024-02-21T00:25:31;99918.19;;;6.06;100.00
77770;BME280;66961;51.482;9.160;2024-02-21T00:27:56;99914.41;;;6.20;100.00
77770;BME280;66961;51.482;9.160;2024-02-21T00:30:21;99918.72;;;6.30;100.00
77770;BME280;66961;51.482;9.160;2024-02-21T00:32:47;99915.69;;;6.35;100.00
77770;BME280;66961;51.482;9.160;2024-02-21T00:35:14;99920.69;;;6.38;100.00
77770;BME280;66961;51.482;9.160;2024-02-21T00:37:39;99918.75;;;6.40;100.00
77770;BME280;66961;51.482;9.160;2024-02-21T00:40:05;99907.84;;;6.45;100.00
77770;BME280;66961;51.482;9.160;2024-02-21T00:42:30;99904.38;;;6.44;100.00
77770;BME280;66961;51.482;9.160;2024-02-21T00:44:56;99902.81;;;6.42;100.00
77770;BME280;66961;51.482;9.160;2024-02-21T00:47:21;99902.28;;;6.48;100.00
77770;BME280;66961;51.482;9.160;2024-02-21T00:49:46;99902.72;;;6.53;100.00
77770;BME280;66961;51.482;9.160;2024-02-21T00:52:12;99905.09;;;6.56;100.00
77770;BME280;66961;51.482;9.160;2024-02-21T00:54:37;99897.34;;;6.54;100.00
77770;BME280;66961;51.482;9.160;2024-02-21T00:57:02;99890.53;;;6.52;100.00
77770;BME280;66961;51.482;9.160;2024-02-21T00:59:28;99881.09;;;6.49;100.00
77770;BME280;66961;51.482;9.160;2024-02-21T01:01:53;99898.03;;;6.56;100.00
77770;BME280;66961;51.482;9.160;2024-02-21T01:04:18;99904.13;;;6.57;100.00
77770;BME280;66961;51.482;9.160;2024-02-21T01:06:43;99894.16;;;6.60;100.00
77770;BME280;66961;51.482;9.160;2024-02-21T01:09:09;99891.53;;;6.60;100.00
77770;BME280;66961;51.482;9.160;2024-02-21T01:11:34;99879.91;;;6.63;100.00
77770;BME280;66961;51.482;9.160;2024-02-21T01:13:59;99874.06;;;6.59;100.00
77770;BME280;66961;51.482;9.160;2024-02-21T01:16:25;99872.97;;;6.62;100.00
77770;BME280;66961;51.482;9.160;2024-02-21T01:18:51;99870.34;;;6.62;100.00
77770;BME280;66961;51.482;9.160;2024-02-21T01:21:16;99868.41;;;6.64;100.00
77770;BME280;66961;51.482;9.160;2024-02-21T01:23:41;99868.25;;;6.66;100.00
77770;BME280;66961;51.482;9.160;2024-02-21T01:26:07;99874.22;;;6.68;100.00
77770;BME280;66961;51.482;9.160;2024-02-21T01:28:32;99860.94;;;6.69;100.00
77770;BME280;66961;51.482;9.160;2024-02-21T01:30:57;99847.47;;;6.72;100.00
77770;BME280;66961;51.482;9.160;2024-02-21T01:33:22;99843.06;;;6.73;100.00
77770;BME280;66961;51.482;9.160;2024-02-21T01:35:48;99842.63;;;6.77;100.00
77770;BME280;66961;51.482;9.160;2024-02-21T01:38:13;99843.16;;;6.81;100.00
77770;BME280;66961;51.482;9.160;2024-02-21T01:40:38;99836.25;;;6.80;100.00
77770;BME280;66961;51.482;9.160;2024-02-21T01:43:17;99834.16;;;6.83;100.00
77770;BME280;66961;51.482;9.160;2024-02-21T01:45:47;99827.22;;;6.82;100.00
77770;BME280;66961;51.482;9.160;2024-02-21T01:48:13;99832.50;;;6.82;100.00
77770;BME280;66961;51.482;9.160;2024-02-21T01:50:39;99832.78;;;6.79;100.00
77770;BME280;66961;51.482;9.160;2024-02-21T01:53:05;99828.47;;;6.78;100.00
77770;BME280;66961;51.482;9.160;2024-02-21T01:55:30;99831.41;;;6.85;100.00
77770;BME280;66961;51.482;9.160;2024-02-21T01:57:56;99817.38;;;6.84;100.00
77770;BME280;66961;51.482;9.160;2024-02-21T02:00:22;99819.47;;;6.81;100.00
77770;BME280;66961;51.482;9.160;2024-02-21T02:02:48;99808.09;;;6.80;100.00
77770;BME280;66961;51.482;9.160;2024-02-21T02:05:15;99799.50;;;6.78;100.00
77770;BME280;66961;51.482;9.160;2024-02-21T02:07:41;99820.44;;;6.80;100.00
77770;BME280;66961;51.482;9.160;2024-02-21T02:10:07;99807.25;;;6.80;100.00
77770;BME280;66961;51.482;9.160;2024-02-21T02:12:32;99795.06;;;6.79;100.00
77770;BME280;66961;51.482;9.160;2024-02-21T02:15:02;99787.84;;;6.81;100.00
77770;BME280;66961;51.482;9.160;2024-02-21T02:17:27;99787.31;;;6.87;100.00
77770;BME280;66961;51.482;9.160;2024-02-21T02:19:53;99783.13;;;6.84;100.00
77770;BME280;66961;51.482;9.160;2024-02-21T02:22:22;99781.47;;;6.83;100.00
77770;BME280;66961;51.482;9.160;2024-02-21T02:24:48;99781.47;;;6.83;100.00
77770;BME280;66961;51.482;9.160;2024-02-21T02:27:14;99765.94;;;6.80;100.00
77770;BME280;66961;51.482;9.160;2024-02-21T02:29:39;99768.44;;;6.82;100.00
77770;BME280;66961;51.482;9.160;2024-02-21T02:32:04;99766.50;;;6.84;100.00
77770;BME280;66961;51.482;9.160;2024-02-21T02:34:30;99767.34;;;6.84;100.00
77770;BME280;66961;51.482;9.160;2024-02-21T02:36:55;99770.66;;;6.86;100.00
77770;BME280;66961;51.482;9.160;2024-02-21T02:39:20;99762.47;;;6.89;100.00
77770;BME280;66961;51.482;9.160;2024-02-21T02:41:45;99760.41;;;6.93;100.00
77770;BME280;66961;51.482;9.160;2024-02-21T02:44:11;99750.00;;;6.91;100.00
77770;BME280;66961;51.482;9.160;2024-02-21T02:46:36;99741.25;;;6.91;99.96
77770;BME280;66961;51.482;9.160;2024-02-21T02:49:01;99731.84;;;6.88;100.00
77770;BME280;66961;51.482;9.160;2024-02-21T02:51:26;99740.56;;;6.89;100.00
77770;BME280;66961;51.482;9.160;2024-02-21T02:53:52;99732.66;;;6.89;100.00
77770;BME280;66961;51.482;9.160;2024-02-21T02:56:17;99732.38;;;6.92;99.12
77770;BME280;66961;51.482;9.160;2024-02-21T02:58:43;99733.78;;;6.96;98.99
77770;BME280;66961;51.482;9.160;2024-02-21T03:01:08;99749.72;;;6.94;99.27
77770;BME280;66961;51.482;9.160;2024-02-21T03:03:33;99748.06;;;6.93;99.18
77770;BME280;66961;51.482;9.160;2024-02-21T03:05:59;99747.38;;;6.91;100.00
77770;BME280;66961;51.482;9.160;2024-02-21T03:08:24;99729.06;;;6.90;99.95
77770;BME280;66961;51.482;9.160;2024-02-21T03:10:49;99725.75;;;6.78;100.00
77770;BME280;66961;51.482;9.160;2024-02-21T03:13:14;99737.53;;;6.84;100.00
77770;BME280;66961;51.482;9.160;2024-02-21T03:15:40;99730.72;;;6.81;100.00
77770;BME280;66961;51.482;9.160;2024-02-21T03:18:05;99735.03;;;6.82;100.00
77770;BME280;66961;51.482;9.160;2024-02-21T03:20:31;99729.06;;;6.90;98.92
77770;BME280;66961;51.482;9.160;2024-02-21T03:22:56;99729.19;;;6.88;99.61
77770;BME280;66961;51.482;9.160;2024-02-21T03:25:21;99730.16;;;6.87;99.81
77770;BME280;66961;51.482;9.160;2024-02-21T03:27:47;99722.41;;;6.86;100.00
77770;BME280;66961;51.482;9.160;2024-02-21T03:30:12;99725.88;;;6.77;100.00
77770;BME280;66961;51.482;9.160;2024-02-21T03:32:37;99738.34;;;6.84;100.00
77770;BME280;66961;51.482;9.160;2024-02-21T03:35:03;99739.19;;;6.85;99.95
77770;BME280;66961;51.482;9.160;2024-02-21T03:37:28;99721.84;;;6.82;100.00
77770;BME280;66961;51.482;9.160;2024-02-21T03:39:53;99723.50;;;6.83;99.93
77770;BME280;66961;51.482;9.160;2024-02-21T03:42:19;99715.75;;;6.82;99.49
77770;BME280;66961;51.482;9.160;2024-02-21T03:44:44;99708.41;;;6.85;98.79
77770;BME280;66961;51.482;9.160;2024-02-21T03:47:09;99702.03;;;6.88;97.66
77770;BME280;66961;51.482;9.160;2024-02-21T03:49:34;99704.09;;;6.94;96.42
77770;BME280;66961;51.482;9.160;2024-02-21T03:52:00;99698.00;;;6.93;95.35
77770;BME280;66961;51.482;9.160;2024-02-21T03:54:25;99691.47;;;6.97;95.71
77770;BME280;66961;51.482;9.160;2024-02-21T03:56:50;99695.06;;;6.96;95.60
77770;BME280;66961;51.482;9.160;2024-02-21T03:59:15;99684.00;;;6.93;95.25
77770;BME280;66961;51.482;9.160;2024-02-21T04:01:41;99670.53;;;6.96;94.54
77770;BME280;66961;51.482;9.160;2024-02-21T04:04:06;99679.69;;;6.92;95.17
77770;BME280;66961;51.482;9.160;2024-02-21T04:06:32;99690.22;;;6.92;96.43
77770;BME280;66961;51.482;9.160;2024-02-21T04:08:57;99688.84;;;6.88;96.77
77770;BME280;66961;51.482;9.160;2024-02-21T04:11:22;99677.75;;;6.94;94.19
77770;BME280;66961;51.482;9.160;2024-02-21T04:13:48;99667.34;;;6.92;94.44
77770;BME280;66961;51.482;9.160;2024-02-21T04:16:13;99669.56;;;6.87;96.90
77770;BME280;66961;51.482;9.160;2024-02-21T04:18:39;99670.97;;;6.82;96.66
77770;BME280;66961;51.482;9.160;2024-02-21T04:21:05;99673.72;;;6.90;95.15
77770;BME280;66961;51.482;9.160;2024-02-21T04:23:30;99682.06;;;6.85;97.02
77770;BME280;66961;51.482;9.160;2024-02-21T04:25:55;99671.66;;;6.84;96.42
77770;BME280;66961;51.482;9.160;2024-02-21T04:28:21;99669.03;;;6.84;96.74
77770;BME280;66961;51.482;9.160;2024-02-21T04:30:46;99668.88;;;6.85;96.20
77770;BME280;66961;51.482;9.160;2024-02-21T04:33:11;99662.09;;;6.83;96.48
77770;BME280;66961;51.482;9.160;2024-02-21T04:35:36;99658.91;;;6.79;96.85
77770;BME280;66961;51.482;9.160;2024-02-21T04:38:02;99650.50;;;6.76;97.02
77770;BME280;66961;51.482;9.160;2024-02-21T04:40:27;99651.59;;;6.73;97.23
77770;BME280;66961;51.482;9.160;2024-02-21T04:42:52;99653.81;;;6.68;97.16
77770;BME280;66961;51.482;9.160;2024-02-21T04:45:18;99649.81;;;6.64;98.03
77770;BME280;66961;51.482;9.160;2024-02-21T04:47:43;99659.94;;;6.59;98.25
77770;BME280;66961;51.482;9.160;2024-02-21T04:50:08;99653.97;;;6.57;98.43
77770;BME280;66961;51.482;9.160;2024-02-21T04:52:33;99660.34;;;6.54;98.53
77770;BME280;66961;51.482;9.160;2024-02-21T04:54:59;99675.31;;;6.54;98.47
77770;BME280;66961;51.482;9.160;2024-02-21T04:57:24;99676.97;;;6.55;98.61
77770;BME280;66961;51.482;9.160;2024-02-21T04:59:49;99675.44;;;6.52;98.62
77770;BME280;66961;51.482;9.160;2024-02-21T05:02:14;99680.44;;;6.55;98.73
77770;BME280;66961;51.482;9.160;2024-02-21T05:04:40;99693.47;;;6.57;97.90
77770;BME280;66961;51.482;9.160;2024-02-21T05:07:05;99700.25;;;6.59;98.04
77770;BME280;66961;51.482;9.160;2024-02-21T05:09:30;99703.59;;;6.61;97.51
77770;BME280;66961;51.482;9.160;2024-02-21T05:11:56;99702.75;;;6.61;98.00
77770;BME280;66961;51.482;9.160;2024-02-21T05:14:21;99704.41;;;6.62;98.58
77770;BME280;66961;51.482;9.160;2024-02-21T05:16:47;99701.91;;;6.60;98.23
77770;BME280;66961;51.482;9.160;2024-02-21T05:19:12;99694.16;;;6.59;98.49
77770;BME280;66961;51.482;9.160;2024-02-21T05:21:37;99699.44;;;6.59;98.34
77770;BME280;66961;51.482;9.160;2024-02-21T05:24:03;99702.88;;;6.59;98.55
77770;BME280;66961;51.482;9.160;2024-02-21T05:26:28;99712.59;;;6.59;98.80
77770;BME280;66961;51.482;9.160;2024-02-21T05:28:54;99708.03;;;6.61;98.46
77770;BME280;66961;51.482;9.160;2024-02-21T05:31:20;99703.88;;;6.58;99.17
77770;BME280;66961;51.482;9.160;2024-02-21T05:33:45;99706.63;;;6.57;98.63
77770;BME280;66961;51.482;9.160;2024-02-21T05:36:11;99719.78;;;6.57;98.87
77770;BME280;66961;51.482;9.160;2024-02-21T05:38:37;99719.78;;;6.57;98.72
77770;BME280;66961;51.482;9.160;2024-02-21T05:41:03;99714.66;;;6.55;98.33
77770;BME280;66961;51.482;9.160;2024-02-21T05:43:28;99713.00;;;6.54;98.40
77770;BME280;66961;51.482;9.160;2024-02-21T05:45:54;99714.53;;;6.57;97.90
77770;BME280;66961;51.482;9.160;2024-02-21T05:48:19;99703.03;;;6.58;96.38
77770;BME280;66961;51.482;9.160;2024-02-21T05:50:45;99699.44;;;6.59;95.97
77770;BME280;66961;51.482;9.160;2024-02-21T05:53:10;99687.91;;;6.60;95.46
77770;BME280;66961;51.482;9.160;2024-02-21T05:55:35;99680.84;;;6.60;95.26
77770;BME280;66961;51.482;9.160;2024-02-21T05:58:01;99669.34;;;6.61;94.42
77770;BME280;66961;51.482;9.160;2024-02-21T06:00:26;99675.88;;;6.67;92.55
77770;BME280;66961;51.482;9.160;2024-02-21T06:02:52;99655.34;;;6.71;92.74
77770;BME280;66961;51.482;9.160;2024-02-21T06:05:17;99657.28;;;6.69;92.04
77770;BME280;66961;51.482;9.160;2024-02-21T06:07:42;99658.94;;;6.70;92.56
77770;BME280;66961;51.482;9.160;2024-02-21T06:10:08;99661.84;;;6.67;93.04
77770;BME280;66961;51.482;9.160;2024-02-21T06:12:33;99659.22;;;6.67;92.44
77770;BME280;66961;51.482;9.160;2024-02-21T06:14:58;99647.88;;;6.66;91.60
77770;BME280;66961;51.482;9.160;2024-02-21T06:17:23;99656.44;;;6.68;91.62
77770;BME280;66961;51.482;9.160;2024-02-21T06:19:49;99652.84;;;6.69;91.46
77770;BME280;66961;51.482;9.160;2024-02-21T06:22:14;99641.47;;;6.69;92.14
77770;BME280;66961;51.482;9.160;2024-02-21T06:24:39;99650.22;;;6.69;91.77
77770;BME280;66961;51.482;9.160;2024-02-21T06:27:05;99652.84;;;6.69;91.75
77770;BME280;66961;51.482;9.160;2024-02-21T06:29:30;99639.97;;;6.66;91.59
77770;BME280;66961;51.482;9.160;2024-02-21T06:31:55;99640.66;;;6.68;91.78
77770;BME280;66961;51.482;9.160;2024-02-21T06:34:21;99639.00;;;6.67;91.65
77770;BME280;66961;51.482;9.160;2024-02-21T06:36:46;99647.16;;;6.64;92.01
77770;BME280;66961;51.482;9.160;2024-02-21T06:39:11;99650.22;;;6.59;91.81
77770;BME280;66961;51.482;9.160;2024-02-21T06:41:37;99645.94;;;6.58;91.72
77770;BME280;66961;51.482;9.160;2024-02-21T06:44:02;99649.53;;;6.57;91.85
77770;BME280;66961;51.482;9.160;2024-02-21T06:46:29;99644.25;;;6.57;92.03
77770;BME280;66961;51.482;9.160;2024-02-21T06:48:55;99637.47;;;6.55;92.32
77770;BME280;66961;51.482;9.160;2024-02-21T06:51:20;99638.84;;;6.59;91.88
77770;BME280;66961;51.482;9.160;2024-02-21T06:53:45;99640.53;;;6.60;91.98
77770;BME280;66961;51.482;9.160;2024-02-21T06:56:11;99627.22;;;6.52;92.48
77770;BME280;66961;51.482;9.160;2024-02-21T06:58:36;99627.50;;;6.58;92.17
77770;BME280;66961;51.482;9.160;2024-02-21T07:01:01;99619.19;;;6.63;91.30
77770;BME280;66961;51.482;9.160;2024-02-21T07:03:27;99601.00;;;6.70;91.10
77770;BME280;66961;51.482;9.160;2024-02-21T07:05:52;99596.84;;;6.67;91.43
77770;BME280;66961;51.482;9.160;2024-02-21T07:08:17;99586.88;;;6.71;90.93
77770;BME280;66961;51.482;9.160;2024-02-21T07:10:42;99599.59;;;6.75;91.35
77770;BME280;66961;51.482;9.160;2024-02-21T07:13:08;99608.84;;;6.79;90.58
77770;BME280;66961;51.482;9.160;2024-02-21T07:15:33;99607.19;;;6.78;91.55
77770;BME280;66961;51.482;9.160;2024-02-21T07:17:58;99615.41;;;6.75;92.17
77770;BME280;66961;51.482;9.160;2024-02-21T07:20:24;99614.41;;;6.76;92.62
77770;BME280;66961;51.482;9.160;2024-02-21T07:22:49;99606.69;;;6.75;91.57
77770;BME280;66961;51.482;9.160;2024-02-21T07:25:14;99609.97;;;6.77;91.36
77770;BME280;66961;51.482;9.160;2024-02-21T07:27:40;99591.72;;;6.75;91.58
77770;BME280;66961;51.482;9.160;2024-02-21T07:30:05;99574.38;;;6.73;90.85
77770;BME280;66961;51.482;9.160;2024-02-21T07:32:31;99603.72;;;6.87;90.42
77770;BME280;66961;51.482;9.160;2024-02-21T07:34:56;99591.47;;;6.96;90.82
77770;BME280;66961;51.482;9.160;2024-02-21T07:37:21;99592.56;;;7.03;90.12
77770;BME280;66961;51.482;9.160;2024-02-21T07:39:47;99592.00;;;7.09;89.07
77770;BME280;66961;51.482;9.160;2024-02-21T07:42:12;99583.66;;;7.14;88.85
77770;BME280;66961;51.482;9.160;2024-02-21T07:44:37;99580.97;;;7.23;86.64
77770;BME280;66961;51.482;9.160;2024-02-21T07:47:03;99584.81;;;7.29;86.81
77770;BME280;66961;51.482;9.160;2024-02-21T07:49:28;99595.84;;;7.42;85.84
77770;BME280;66961;51.482;9.160;2024-02-21T07:51:53;99597.63;;;7.51;84.96
77770;BME280;66961;51.482;9.160;2024-02-21T07:54:18;99586.47;;;7.57;83.81
77770;BME280;66961;51.482;9.160;2024-02-21T07:56:44;99585.06;;;7.63;84.18
77770;BME280;66961;51.482;9.160;2024-02-21T07:59:09;99596.81;;;7.69;84.56
77770;BME280;66961;51.482;9.160;2024-02-21T08:01:34;99597.91;;;7.76;84.39
77770;BME280;66961;51.482;9.160;2024-02-21T08:03:59;99587.03;;;7.79;83.18
77770;BME280;66961;51.482;9.160;2024-02-21T08:06:25;99578.81;;;7.82;83.30
77770;BME280;66961;51.482;9.160;2024-02-21T08:08:50;99588.00;;;7.95;82.94
77770;BME280;66961;51.482;9.160;2024-02-21T08:11:15;99578.97;;;7.98;83.39
77770;BME280;66961;51.482;9.160;2024-02-21T08:13:41;99577.84;;;8.01;83.16
77770;BME280;66961;51.482;9.160;2024-02-21T08:16:06;99572.19;;;7.95;83.01
77770;BME280;66961;51.482;9.160;2024-02-21T08:18:31;99572.56;;;8.01;82.14
77770;BME280;66961;51.482;9.160;2024-02-21T08:20:56;99575.13;;;8.10;82.99
77770;BME280;66961;51.482;9.160;2024-02-21T08:23:23;99570.22;;;8.15;82.66
77770;BME280;66961;51.482;9.160;2024-02-21T08:25:49;99568.88;;;8.11;81.37
77770;BME280;66961;51.482;9.160;2024-02-21T08:28:14;99576.41;;;8.24;81.45
77770;BME280;66961;51.482;9.160;2024-02-21T08:30:39;99573.31;;;8.28;81.47
77770;BME280;66961;51.482;9.160;2024-02-21T08:33:04;99569.38;;;8.33;80.40
77770;BME280;66961;51.482;9.160;2024-02-21T08:35:30;99565.88;;;8.32;81.13
77770;BME280;66961;51.482;9.160;2024-02-21T08:37:55;99564.94;;;8.33;81.62
77770;BME280;66961;51.482;9.160;2024-02-21T08:40:20;99559.34;;;8.36;81.62
77770;BME280;66961;51.482;9.160;2024-02-21T08:42:45;99567.34;;;8.44;80.43
77770;BME280;66961;51.482;9.160;2024-02-21T08:45:11;99565.59;;;8.53;79.49
77770;BME280;66961;51.482;9.160;2024-02-21T08:47:39;99551.25;;;8.55;81.15
77770;BME280;66961;51.482;9.160;2024-02-21T08:50:04;99552.44;;;8.61;79.96
77770;BME280;66961;51.482;9.160;2024-02-21T08:52:30;99546.38;;;8.69;78.72
77770;BME280;66961;51.482;9.160;2024-02-21T08:54:55;99544.88;;;8.66;79.77
77770;BME280;66961;51.482;9.160;2024-02-21T08:57:20;99530.72;;;8.75;78.80
77770;BME280;66961;51.482;9.160;2024-02-21T08:59:46;99532.09;;;8.87;77.93
77770;BME280;66961;51.482;9.160;2024-02-21T09:02:11;99526.19;;;8.93;77.63
77770;BME280;66961;51.482;9.160;2024-02-21T09:04:36;99526.22;;;9.02;75.13
77770;BME280;66961;51.482;9.160;2024-02-21T09:07:02;99523.28;;;9.13;76.64
77770;BME280;66961;51.482;9.160;2024-02-21T09:09:27;99535.22;;;9.17;75.75
77770;BME280;66961;51.482;9.160;2024-02-21T09:11:52;99530.56;;;9.11;76.03
77770;BME280;66961;51.482;9.160;2024-02-21T09:14:17;99527.25;;;9.09;72.42
77770;BME280;66961;51.482;9.160;2024-02-21T09:16:43;99515.03;;;9.16;72.21
77770;BME280;66961;51.482;9.160;2024-02-21T09:19:08;99519.19;;;9.18;73.01
77770;BME280;66961;51.482;9.160;2024-02-21T09:21:33;99531.34;;;9.03;75.21
77770;BME280;66961;51.482;9.160;2024-02-21T09:23:58;99518.31;;;9.10;74.04
77770;BME280;66961;51.482;9.160;2024-02-21T09:26:24;99509.41;;;9.11;74.45
77770;BME280;66961;51.482;9.160;2024-02-21T09:28:49;99517.50;;;9.09;71.98
77770;BME280;66961;51.482;9.160;2024-02-21T09:31:14;99515.31;;;9.05;74.10
77770;BME280;66961;51.482;9.160;2024-02-21T09:33:39;99510.22;;;9.11;73.26
77770;BME280;66961;51.482;9.160;2024-02-21T09:36:05;99507.44;;;9.13;75.46
77770;BME280;66961;51.482;9.160;2024-02-21T09:38:31;99499.03;;;9.17;74.95
77770;BME280;66961;51.482;9.160;2024-02-21T09:41:00;99518.22;;;9.27;72.92
77770;BME280;66961;51.482;9.160;2024-02-21T09:43:26;99512.97;;;9.36;73.92
77770;BME280;66961;51.482;9.160;2024-02-21T09:45:54;99500.09;;;9.49;72.05
77770;BME280;66961;51.482;9.160;2024-02-21T09:48:53;99515.13;;;9.48;72.03
77770;BME280;66961;51.482;9.160;2024-02-21T09:51:24;99498.78;;;9.53;72.90
77770;BME280;66961;51.482;9.160;2024-02-21T09:53:50;99503.44;;;9.67;75.30
77770;BME280;66961;51.482;9.160;2024-02-21T09:56:16;99497.84;;;9.86;74.70
77770;BME280;66961;51.482;9.160;2024-02-21T09:58:41;99497.66;;;10.12;74.45
77770;BME280;66961;51.482;9.160;2024-02-21T10:01:07;99511.91;;;10.36;72.21
77770;BME280;66961;51.482;9.160;2024-02-21T10:03:33;99512.38;;;10.47;73.89
77770;BME280;66961;51.482;9.160;2024-02-21T10:05:58;99500.09;;;10.54;71.35
77770;BME280;66961;51.482;9.160;2024-02-21T10:08:24;99498.97;;;10.41;71.49
77770;BME280;66961;51.482;9.160;2024-02-21T10:10:49;99491.38;;;10.30;71.99
77770;BME280;66961;51.482;9.160;2024-02-21T10:13:25;99496.50;;;10.15;72.86
77770;BME280;66961;51.482;9.160;2024-02-21T10:16:06;99480.28;;;9.85;72.97
77770;BME280;66961;51.482;9.160;2024-02-21T10:18:33;99476.97;;;9.91;71.78
77770;BME280;66961;51.482;9.160;2024-02-21T10:21:06;99465.88;;;9.96;73.66
77770;BME280;66961;51.482;9.160;2024-02-21T10:26:10;99464.75;;;9.82;77.39
77770;BME280;66961;51.482;9.160;2024-02-21T10:28:35;99459.44;;;9.82;75.21
77770;BME280;66961;51.482;9.160;2024-02-21T10:31:00;99446.34;;;9.56;77.03
77770;BME280;66961;51.482;9.160;2024-02-21T10:33:25;99448.00;;;9.57;77.51
77770;BME280;66961;51.482;9.160;2024-02-21T10:35:51;99445.84;;;9.45;75.61
77770;BME280;66961;51.482;9.160;2024-02-21T10:38:16;99444.34;;;9.42;76.90
77770;BME280;66961;51.482;9.160;2024-02-21T10:40:41;99441.19;;;9.39;77.88
77770;BME280;66961;51.482;9.160;2024-02-21T10:43:12;99436.56;;;9.24;77.23
77770;BME280;66961;51.482;9.160;2024-02-21T10:45:37;99424.19;;;9.33;77.35
77770;BME280;66961;51.482;9.160;2024-02-21T10:48:22;99431.75;;;9.20;76.91
77770;BME280;66961;51.482;9.160;2024-02-21T10:51:14;99419.53;;;9.19;77.25
77770;BME280;66961;51.482;9.160;2024-02-21T10:56:28;99412.44;;;9.19;77.73
77770;BME280;66961;51.482;9.160;2024-02-21T10:58:54;99404.31;;;9.37;77.38
77770;BME280;66961;51.482;9.160;2024-02-21T11:01:20;99408.13;;;9.43;75.55
77770;BME280;66961;51.482;9.160;2024-02-21T11:03:47;99401.19;;;9.25;76.58
77770;BME280;66961;51.482;9.160;2024-02-21T11:06:13;99396.75;;;9.34;76.22
77770;BME280;66961;51.482;9.160;2024-02-21T11:08:39;99397.88;;;9.23;77.29
77770;BME280;66961;51.482;9.160;2024-02-21T11:11:05;99396.41;;;9.21;77.90
77770;BME280;66961;51.482;9.160;2024-02-21T11:13:40;99389.75;;;9.09;76.71
77770;BME280;66961;51.482;9.160;2024-02-21T11:16:10;99392.25;;;9.10;77.76
77770;BME280;66961;51.482;9.160;2024-02-21T11:18:38;99396.84;;;9.00;78.40
77770;BME280;66961;51.482;9.160;2024-02-21T11:21:04;99378.22;;;9.18;78.72
77770;BME280;66961;51.482;9.160;2024-02-21T11:23:29;99372.25;;;9.16;77.98
77770;BME280;66961;51.482;9.160;2024-02-21T11:26:07;99366.16;;;9.32;78.35
77770;BME280;66961;51.482;9.160;2024-02-21T11:28:33;99355.25;;;9.51;75.66
77770;BME280;66961;51.482;9.160;2024-02-21T11:31:14;99347.13;;;9.60;74.59
77770;BME280;66961;51.482;9.160;2024-02-21T11:33:40;99338.19;;;9.86;73.74
77770;BME280;66961;51.482;9.160;2024-02-21T11:36:06;99340.69;;;9.71;75.57
77770;BME280;66961;51.482;9.160;2024-02-21T11:38:31;99342.00;;;9.75;75.89
77770;BME280;66961;51.482;9.160;2024-02-21T11:40:56;99332.56;;;9.65;74.52
77770;BME280;66961;51.482;9.160;2024-02-21T11:43:22;99324.63;;;9.65;76.74
77770;BME280;66961;51.482;9.160;2024-02-21T11:45:47;99310.41;;;9.74;74.98
77770;BME280;66961;51.482;9.160;2024-02-21T11:48:12;99305.81;;;9.43;74.14
77770;BME280;66961;51.482;9.160;2024-02-21T11:50:38;99299.19;;;9.47;75.46
77770;BME280;66961;51.482;9.160;2024-02-21T11:53:03;99303.66;;;9.39;75.94
77770;BME280;66961;51.482;9.160;2024-02-21T11:55:29;99295.88;;;9.45;77.24
77770;BME280;66961;51.482;9.160;2024-02-21T11:57:54;99291.94;;;9.17;77.87
77770;BME280;66961;51.482;9.160;2024-02-21T12:00:20;99268.81;;;9.03;78.72
77770;BME280;66961;51.482;9.160;2024-02-21T12:02:45;99278.38;;;9.04;79.46
77770;BME280;66961;51.482;9.160;2024-02-21T12:05:11;99285.31;;;9.05;80.34
77770;BME280;66961;51.482;9.160;2024-02-21T12:07:37;99273.09;;;8.95;80.52
77770;BME280;66961;51.482;9.160;2024-02-21T12:10:02;99265.97;;;8.88;80.61
77770;BME280;66961;51.482;9.160;2024-02-21T12:12:28;99263.00;;;8.91;81.16
77770;BME280;66961;51.482;9.160;2024-02-21T12:14:56;99264.16;;;8.88;81.50
77770;BME280;66961;51.482;9.160;2024-02-21T12:17:21;99261.22;;;8.83;80.64
77770;BME280;66961;51.482;9.160;2024-02-21T12:19:47;99249.13;;;8.65;81.30
77770;BME280;66961;51.482;9.160;2024-02-21T12:22:18;99259.22;;;8.69;80.93
77770;BME280;66961;51.482;9.160;2024-02-21T12:24:44;99245.03;;;8.78;81.76
77770;BME280;66961;51.482;9.160;2024-02-21T12:27:09;99252.28;;;8.76;81.04
77770;BME280;66961;51.482;9.160;2024-02-21T12:29:34;99250.13;;;8.72;81.28
77770;BME280;66961;51.482;9.160;2024-02-21T12:31:59;99241.38;;;8.63;81.82
77770;BME280;66961;51.482;9.160;2024-02-21T12:34:25;99249.63;;;8.68;82.86
77770;BME280;66961;51.482;9.160;2024-02-21T12:36:50;99243.34;;;8.85;81.72
77770;BME280;66961;51.482;9.160;2024-02-21T12:39:15;99241.53;;;8.86;81.89
77770;BME280;66961;51.482;9.160;2024-02-21T12:41:41;99239.41;;;8.81;80.61
77770;BME280;66961;51.482;9.160;2024-02-21T12:44:07;99250.78;;;8.90;80.54
77770;BME280;66961;51.482;9.160;2024-02-21T12:46:36;99239.41;;;8.73;80.54
77770;BME280;66961;51.482;9.160;2024-02-21T12:49:02;99225.03;;;8.68;80.80
77770;BME280;66961;51.482;9.160;2024-02-21T12:51:27;99222.22;;;8.69;81.04
77770;BME280;66961;51.482;9.160;2024-02-21T12:53:53;99214.63;;;8.58;80.60
77770;BME280;66961;51.482;9.160;2024-02-21T12:56:18;99206.03;;;8.72;80.36
77770;BME280;66961;51.482;9.160;2024-02-21T12:58:43;99202.22;;;8.58;79.25
77770;BME280;66961;51.482;9.160;2024-02-21T13:01:09;99191.69;;;8.67;81.47
77770;BME280;66961;51.482;9.160;2024-02-21T13:03:34;99192.84;;;8.72;81.22
77770;BME280;66961;51.482;9.160;2024-02-21T13:05:59;99179.28;;;8.59;79.81